createdAt,value
2022-09-14T00:01:25.456Z,22.13
2022-09-14T00:03:55.064Z,22.24
2022-09-14T00:06:21.992Z,22.25
2022-09-14T00:08:52.957Z,22.19
2022-09-14T00:11:21.630Z,22.19
2022-09-14T00:13:49.007Z,22.20
2022-09-14T00:16:27.256Z,22.26
2022-09-14T00:19:00.564Z,22.22
2022-09-14T00:21:27.877Z,22.34
2022-09-14T00:23:54.430Z,22.35
2022-09-14T00:26:23.263Z,22.29
2022-09-14T00:28:56.447Z,22.23
2022-09-14T00:31:24.862Z,22.23
2022-09-14T00:33:53.829Z,22.19
2022-09-14T00:36:26.200Z,22.17
2022-09-14T00:38:56.476Z,22.20
2022-09-14T00:41:25.527Z,22.29
2022-09-14T00:43:57.684Z,22.21
2022-09-14T00:46:26.260Z,22.12
2022-09-14T00:48:53.626Z,22.05
2022-09-14T00:51:21.929Z,22.08
2022-09-14T00:53:48.594Z,22.07
2022-09-14T00:56:15.673Z,22.03
2022-09-14T00:58:44.696Z,22.25
2022-09-14T01:01:11.591Z,22.12
2022-09-14T01:03:38.057Z,21.99
2022-09-14T01:06:35.437Z,21.90
2022-09-14T01:09:24.882Z,21.88
2022-09-14T01:11:57.117Z,22.04
2022-09-14T01:14:44.823Z,22.02
2022-09-14T01:17:18.058Z,22.07
2022-09-14T01:19:59.453Z,22.10
2022-09-14T01:22:42.927Z,22.13
2022-09-14T01:25:33.864Z,22.10
2022-09-14T01:28:03.652Z,21.94
2022-09-14T01:30:33.570Z,21.95
2022-09-14T01:33:13.953Z,21.80
2022-09-14T01:36:08.320Z,21.89
2022-09-14T01:38:43.586Z,21.83
2022-09-14T01:41:13.408Z,21.87
2022-09-14T01:43:57.565Z,21.82
2022-09-14T01:46:31.697Z,21.84
2022-09-14T01:49:02.343Z,21.83
2022-09-14T01:51:36.270Z,21.83
2022-09-14T01:54:26.888Z,21.91
2022-09-14T01:57:05.496Z,21.82
2022-09-14T01:59:37.458Z,21.87
2022-09-14T02:02:18.157Z,21.79
2022-09-14T02:04:54.278Z,21.74
2022-09-14T02:07:20.865Z,21.79
2022-09-14T02:09:49.018Z,21.88
2022-09-14T02:12:15.955Z,21.70
2022-09-14T02:17:09.634Z,21.68
2022-09-14T02:19:55.288Z,21.58
2022-09-14T02:22:21.948Z,21.58
2022-09-14T02:24:49.152Z,21.63
2022-09-14T02:27:15.551Z,21.61
2022-09-14T02:29:42.109Z,21.70
2022-09-14T02:32:21.187Z,21.76
2022-09-14T02:34:53.305Z,21.64
2022-09-14T02:37:35.751Z,21.80
2022-09-14T02:40:31.299Z,21.74
2022-09-14T02:43:03.479Z,21.76
2022-09-14T02:45:50.724Z,21.76
2022-09-14T02:48:31.377Z,21.70
2022-09-14T02:51:25.296Z,21.70
2022-09-14T02:53:59.843Z,21.57
2022-09-14T02:56:28.711Z,21.53
2022-09-14T02:58:55.881Z,21.57
2022-09-14T03:01:24.319Z,21.47
2022-09-14T03:03:51.000Z,21.57
2022-09-14T03:06:17.735Z,21.31
2022-09-14T03:08:44.504Z,21.28
2022-09-14T03:11:11.173Z,21.24
2022-09-14T03:13:37.925Z,21.34
2022-09-14T03:16:09.387Z,21.46
2022-09-14T03:18:36.973Z,21.55
2022-09-14T03:21:08.967Z,21.43
2022-09-14T03:23:40.310Z,21.45
2022-09-14T03:26:12.224Z,21.40
2022-09-14T03:28:39.210Z,21.22
2022-09-14T03:31:07.929Z,21.23
2022-09-14T03:33:35.199Z,21.35
2022-09-14T03:36:09.230Z,21.28
2022-09-14T03:38:35.650Z,21.16
2022-09-14T03:41:07.120Z,21.04
2022-09-14T03:43:33.881Z,20.93
2022-09-14T03:46:08.591Z,21.05
2022-09-14T03:48:35.604Z,21.16
2022-09-14T03:51:03.894Z,21.10
2022-09-14T03:53:30.821Z,21.06
2022-09-14T03:55:57.446Z,21.23
2022-09-14T03:58:24.412Z,21.18
2022-09-14T04:00:51.444Z,21.11
2022-09-14T04:03:18.559Z,21.04
2022-09-14T04:05:55.183Z,21.06
2022-09-14T04:08:21.974Z,21.03
2022-09-14T04:10:48.406Z,20.91
2022-09-14T04:13:14.829Z,20.88
2022-09-14T04:15:41.499Z,20.84
2022-09-14T04:18:07.937Z,20.81
2022-09-14T04:20:35.215Z,20.66
2022-09-14T04:23:01.622Z,20.64
2022-09-14T04:25:28.045Z,20.47
2022-09-14T04:28:16.621Z,20.53
2022-09-14T04:30:41.166Z,20.64
2022-09-14T04:33:07.630Z,20.66
2022-09-14T04:35:34.097Z,20.60
2022-09-14T04:38:00.519Z,20.52
2022-09-14T04:40:28.877Z,20.48
2022-09-14T04:42:55.396Z,20.56
2022-09-14T04:45:21.807Z,20.45
2022-09-14T04:47:48.389Z,20.34
2022-09-14T04:50:15.267Z,20.45
2022-09-14T04:52:41.765Z,20.29
2022-09-14T04:55:08.522Z,20.33
2022-09-14T04:57:34.944Z,20.33
2022-09-14T05:00:01.581Z,20.36
2022-09-14T05:02:30.932Z,20.39
2022-09-14T05:04:58.870Z,20.35
2022-09-14T05:07:25.278Z,20.24
2022-09-14T05:09:51.761Z,20.20
2022-09-14T05:12:18.190Z,20.15
2022-09-14T05:14:44.603Z,20.22
2022-09-14T05:17:11.093Z,20.21
2022-09-14T05:19:37.541Z,20.25
2022-09-14T05:22:04.049Z,20.32
2022-09-14T05:24:31.012Z,20.16
2022-09-14T05:27:01.009Z,20.18
2022-09-14T05:29:29.577Z,20.26
2022-09-14T05:31:56.074Z,20.40
2022-09-14T05:34:22.532Z,20.33
2022-09-14T05:36:49.039Z,20.33
2022-09-14T05:39:18.697Z,20.28
2022-09-14T05:41:50.074Z,20.46
2022-09-14T05:44:16.581Z,20.60
2022-09-14T05:46:43.050Z,20.56
2022-09-14T05:49:09.556Z,20.50
2022-09-14T05:51:35.963Z,20.57
2022-09-14T05:54:03.087Z,20.71
2022-09-14T05:56:31.754Z,20.63
2022-09-14T05:58:59.351Z,20.62
2022-09-14T06:01:31.746Z,20.58
2022-09-14T06:04:02.135Z,20.53
2022-09-14T06:06:30.281Z,20.56
2022-09-14T06:08:57.188Z,20.69
2022-09-14T06:11:29.194Z,20.69
2022-09-14T06:13:56.278Z,20.85
2022-09-14T06:16:24.670Z,20.86
2022-09-14T06:18:51.207Z,21.05
2022-09-14T06:21:19.840Z,21.11
2022-09-14T06:23:47.609Z,21.29
2022-09-14T06:26:14.427Z,21.42
2022-09-14T06:28:41.206Z,21.29
2022-09-14T06:31:09.973Z,21.50
2022-09-14T06:33:37.122Z,21.42
2022-09-14T06:36:12.664Z,21.50
2022-09-14T06:38:40.347Z,21.56
2022-09-14T06:41:09.202Z,21.65
2022-09-14T06:43:41.357Z,21.75
2022-09-14T06:46:14.660Z,22.04
2022-09-14T06:48:47.368Z,22.47
2022-09-14T06:51:23.423Z,22.86
2022-09-14T06:53:51.182Z,23.30
2022-09-14T06:56:18.832Z,23.44
2022-09-14T06:58:45.690Z,23.82
2022-09-14T07:01:15.737Z,24.33
2022-09-14T07:03:43.997Z,24.72
2022-09-14T07:06:15.980Z,25.12
2022-09-14T07:08:43.513Z,25.23
2022-09-14T07:11:12.260Z,25.49
2022-09-14T07:13:38.831Z,25.79
2022-09-14T07:16:06.053Z,26.15
2022-09-14T07:18:32.835Z,26.49
2022-09-14T07:21:16.887Z,26.14
2022-09-14T07:23:45.712Z,25.43
2022-09-14T07:26:20.983Z,25.10
2022-09-14T07:28:53.093Z,24.92
2022-09-14T07:31:24.679Z,24.74
2022-09-14T07:33:56.652Z,24.80
2022-09-14T07:36:24.964Z,24.56
2022-09-14T07:38:53.358Z,24.80
2022-09-14T07:41:25.786Z,24.98
2022-09-14T07:43:54.045Z,26.19
2022-09-14T07:46:21.458Z,26.30
2022-09-14T07:48:49.174Z,25.86
2022-09-14T07:51:15.998Z,25.43
2022-09-14T07:53:43.613Z,25.21
2022-09-14T07:56:11.859Z,25.15
2022-09-14T07:58:38.922Z,25.58
2022-09-14T08:01:09.046Z,25.58
2022-09-14T08:03:40.169Z,26.78
2022-09-14T08:06:12.784Z,27.33
2022-09-14T08:08:41.818Z,26.37
2022-09-14T08:11:17.495Z,26.09
2022-09-14T08:13:46.791Z,26.05
2022-09-14T08:16:13.660Z,26.07
2022-09-14T08:18:40.576Z,26.78
2022-09-14T08:21:09.939Z,27.21
2022-09-14T08:23:37.256Z,27.30
2022-09-14T08:26:16.784Z,27.51
2022-09-14T08:28:44.263Z,27.41
2022-09-14T08:31:13.985Z,27.43
2022-09-14T08:33:44.189Z,26.98
2022-09-14T08:36:13.426Z,26.88
2022-09-14T08:38:39.987Z,26.69
2022-09-14T08:41:28.920Z,26.45
2022-09-14T08:44:01.728Z,26.42
2022-09-14T08:46:35.402Z,26.17
2022-09-14T08:49:05.439Z,26.06
2022-09-14T08:51:31.942Z,25.66
2022-09-14T08:53:59.505Z,25.57
2022-09-14T08:56:32.109Z,25.41
2022-09-14T08:59:27.303Z,25.47
2022-09-14T09:02:05.250Z,25.45
2022-09-14T09:05:10.623Z,25.50
2022-09-14T09:07:53.655Z,25.25
2022-09-14T09:10:20.686Z,24.94
2022-09-14T09:12:55.050Z,25.19
2022-09-14T09:15:27.558Z,25.31
2022-09-14T09:17:59.677Z,25.96
2022-09-14T09:20:33.540Z,26.81
2022-09-14T09:23:12.288Z,27.35
2022-09-14T09:26:03.471Z,28.94
2022-09-14T09:28:31.241Z,28.84
2022-09-14T09:31:04.891Z,29.20
2022-09-14T09:33:32.342Z,29.62
2022-09-14T09:35:59.486Z,29.89
2022-09-14T09:38:29.245Z,29.67
2022-09-14T09:41:05.870Z,29.68
2022-09-14T09:43:49.383Z,29.53
2022-09-14T09:46:17.732Z,30.35
2022-09-14T09:48:45.834Z,31.50
2022-09-14T09:51:14.075Z,31.58
2022-09-14T09:53:53.456Z,30.87
2022-09-14T09:56:31.870Z,31.30
2022-09-14T09:58:58.479Z,31.48
2022-09-14T10:01:35.760Z,31.73
2022-09-14T10:04:20.068Z,30.34
2022-09-14T10:06:49.825Z,29.69
2022-09-14T10:09:23.443Z,29.55
2022-09-14T10:11:57.500Z,29.26
2022-09-14T10:14:34.591Z,29.78
2022-09-14T10:17:19.861Z,30.37
2022-09-14T10:19:53.770Z,30.75
2022-09-14T10:22:28.061Z,31.14
2022-09-14T10:24:58.441Z,31.09
2022-09-14T10:27:38.213Z,30.33
2022-09-14T10:30:07.299Z,29.76
2022-09-14T10:32:35.035Z,29.55
2022-09-14T10:35:01.606Z,29.39
2022-09-14T10:37:32.073Z,29.70
2022-09-14T10:40:16.845Z,29.80
2022-09-14T10:43:02.352Z,29.80
2022-09-14T10:45:31.413Z,29.71
2022-09-14T10:48:40.986Z,29.56
2022-09-14T10:51:27.160Z,29.43
2022-09-14T10:54:44.219Z,29.63
2022-09-14T10:57:37.487Z,29.78
2022-09-14T11:00:12.399Z,29.70
2022-09-14T11:03:15.906Z,29.48
2022-09-14T11:06:17.995Z,29.18
2022-09-14T11:08:49.433Z,28.98
2022-09-14T11:11:22.880Z,28.48
2022-09-14T11:14:18.862Z,28.15
2022-09-14T11:17:06.918Z,28.05
2022-09-14T11:19:48.586Z,28.03
2022-09-14T11:22:24.233Z,27.83
2022-09-14T11:25:03.473Z,27.75
2022-09-14T11:27:39.909Z,27.68
2022-09-14T11:30:16.008Z,27.50
2022-09-14T11:32:52.674Z,27.42
2022-09-14T11:35:37.729Z,27.13
2022-09-14T11:38:28.154Z,27.13
2022-09-14T11:41:21.516Z,26.85
2022-09-14T11:43:57.983Z,26.94
2022-09-14T11:46:42.082Z,26.87
2022-09-14T11:49:26.061Z,26.88
2022-09-14T11:51:59.076Z,27.02
2022-09-14T11:54:25.800Z,27.59
2022-09-14T11:57:03.672Z,28.06
2022-09-14T11:59:39.474Z,28.26
2022-09-14T12:02:24.010Z,27.40
2022-09-14T12:05:05.755Z,27.48
2022-09-14T12:07:47.122Z,27.48
2022-09-14T12:10:13.522Z,27.52
2022-09-14T12:12:45.046Z,27.31
2022-09-14T12:15:23.098Z,27.28
2022-09-14T12:17:55.114Z,27.07
2022-09-14T12:20:33.171Z,26.80
2022-09-14T12:23:34.499Z,26.57
2022-09-14T12:26:05.881Z,26.55
2022-09-14T12:28:35.249Z,26.55
2022-09-14T12:31:04.734Z,26.49
2022-09-14T12:33:31.269Z,26.31
2022-09-14T12:35:57.644Z,26.19
2022-09-14T12:38:32.905Z,26.07
2022-09-14T12:41:08.314Z,25.92
2022-09-14T12:43:37.836Z,25.73
2022-09-14T12:46:22.619Z,25.51
2022-09-14T12:48:49.332Z,25.51
2022-09-14T12:51:34.941Z,25.38
2022-09-14T12:54:22.753Z,25.14
2022-09-14T12:57:14.054Z,25.06
2022-09-14T12:59:55.225Z,24.97
2022-09-14T13:02:44.450Z,24.94
2022-09-14T13:05:15.800Z,24.88
2022-09-14T13:07:42.856Z,24.73
2022-09-14T13:10:25.153Z,24.67
2022-09-14T13:12:52.361Z,24.57
2022-09-14T13:15:37.988Z,24.49
2022-09-14T13:18:24.701Z,24.18
2022-09-14T13:20:56.690Z,24.05
2022-09-14T13:23:28.307Z,23.94
2022-09-14T13:25:55.067Z,23.81
2022-09-14T13:28:24.489Z,23.76
2022-09-14T13:30:56.676Z,23.76
2022-09-14T13:33:23.592Z,23.93
2022-09-14T13:35:51.739Z,23.89
2022-09-14T13:38:22.869Z,23.94
2022-09-14T13:40:52.497Z,23.98
2022-09-14T13:43:21.044Z,23.90
2022-09-14T13:45:49.623Z,23.92
2022-09-14T13:48:18.562Z,23.95
2022-09-14T13:50:48.036Z,24.01
2022-09-14T13:53:45.554Z,24.17
2022-09-14T13:56:22.944Z,24.08
2022-09-14T13:59:15.176Z,24.19
2022-09-14T14:01:49.766Z,24.03
2022-09-14T14:04:38.479Z,23.92
2022-09-14T14:07:26.062Z,24.05
2022-09-14T14:09:55.291Z,24.57
2022-09-14T14:12:27.688Z,24.79
2022-09-14T14:15:12.242Z,24.85
2022-09-14T14:17:40.653Z,24.69
2022-09-14T14:20:26.123Z,24.66
2022-09-14T14:23:20.039Z,24.51
2022-09-14T14:25:52.078Z,24.38
2022-09-14T14:28:23.644Z,24.40
2022-09-14T14:30:51.017Z,24.31
2022-09-14T14:33:19.207Z,24.22
2022-09-14T14:35:52.714Z,24.24
2022-09-14T14:38:19.358Z,24.15
2022-09-14T14:40:46.715Z,24.14
2022-09-14T14:43:24.892Z,23.99
2022-09-14T14:45:55.349Z,23.93
2022-09-14T14:48:21.803Z,23.76
2022-09-14T14:50:48.458Z,23.54
2022-09-14T14:53:15.535Z,23.35
2022-09-14T14:55:42.226Z,23.31
2022-09-14T14:58:21.565Z,23.36
2022-09-14T15:00:48.186Z,23.38
2022-09-14T15:03:15.565Z,23.15
2022-09-14T15:05:46.916Z,23.12
2022-09-14T15:08:15.629Z,23.18
2022-09-14T15:10:42.447Z,23.26
2022-09-14T15:13:10.643Z,23.18
2022-09-14T15:15:39.014Z,23.12
2022-09-14T15:18:05.588Z,23.07
2022-09-14T15:20:31.999Z,23.10
2022-09-14T15:22:58.424Z,23.16
2022-09-14T15:25:24.826Z,23.10
2022-09-14T15:27:51.330Z,23.04
2022-09-14T15:30:17.843Z,23.13
2022-09-14T15:32:44.701Z,23.13
2022-09-14T15:35:13.295Z,23.08
2022-09-14T15:37:40.590Z,23.03
2022-09-14T15:40:07.586Z,23.11
2022-09-14T15:42:34.128Z,23.15
2022-09-14T15:45:00.602Z,23.27
2022-09-14T15:47:27.048Z,23.32
2022-09-14T15:49:53.521Z,23.17
2022-09-14T15:52:20.198Z,23.17
2022-09-14T15:54:46.874Z,23.00
2022-09-14T15:57:13.508Z,22.90
2022-09-14T15:59:40.183Z,22.71
2022-09-14T16:02:07.411Z,22.70
2022-09-14T16:04:37.965Z,22.54
2022-09-14T16:07:09.550Z,22.43
2022-09-14T16:09:38.114Z,22.42
2022-09-14T16:12:04.821Z,22.39
2022-09-14T16:14:31.494Z,22.38
2022-09-14T16:17:00.334Z,22.38
2022-09-14T16:19:26.881Z,22.24
2022-09-14T16:21:53.913Z,22.32
2022-09-14T16:24:21.966Z,22.36
2022-09-14T16:26:48.531Z,22.38
2022-09-14T16:29:17.183Z,22.45
2022-09-14T16:31:45.672Z,22.39
2022-09-14T16:34:26.804Z,22.41
2022-09-14T16:36:53.887Z,22.36
2022-09-14T16:39:23.320Z,22.30
2022-09-14T16:41:50.452Z,22.32
2022-09-14T16:44:22.905Z,22.28
2022-09-14T16:46:49.475Z,22.24
2022-09-14T16:49:17.184Z,22.32
2022-09-14T16:51:43.773Z,22.32
2022-09-14T16:54:15.665Z,22.17
2022-09-14T16:56:42.224Z,22.26
2022-09-14T16:59:09.815Z,22.31
2022-09-14T17:01:40.024Z,22.26
2022-09-14T17:04:13.279Z,22.14
2022-09-14T17:06:41.946Z,22.10
2022-09-14T17:09:20.812Z,22.13
2022-09-14T17:11:48.522Z,22.09
2022-09-14T17:14:17.305Z,22.08
2022-09-14T17:16:43.998Z,21.86
2022-09-14T17:19:11.357Z,21.88
2022-09-14T17:21:40.621Z,21.86
2022-09-14T17:24:08.152Z,21.84
2022-09-14T17:26:35.317Z,21.86
2022-09-14T17:29:03.096Z,21.71
2022-09-14T17:31:36.147Z,21.77
2022-09-14T17:34:04.752Z,21.84
2022-09-14T17:36:31.215Z,21.71
2022-09-14T17:38:59.497Z,21.76
2022-09-14T17:41:30.386Z,21.72
2022-09-14T17:44:02.087Z,21.78
2022-09-14T17:46:29.675Z,21.65
2022-09-14T17:49:00.567Z,21.55
2022-09-14T17:51:28.712Z,21.59
2022-09-14T17:53:57.234Z,21.47
2022-09-14T17:56:27.338Z,21.46
2022-09-14T17:59:04.166Z,21.53
2022-09-14T18:01:31.621Z,21.50
2022-09-14T18:04:02.467Z,21.48
2022-09-14T18:06:31.439Z,21.54
2022-09-14T18:09:01.749Z,21.64
2022-09-14T18:11:29.122Z,21.46
2022-09-14T18:13:56.117Z,21.48
2022-09-14T18:16:24.232Z,21.37
2022-09-14T18:18:51.536Z,21.34
2022-09-14T18:21:18.696Z,21.25
2022-09-14T18:23:50.026Z,21.25
2022-09-14T18:26:16.858Z,21.34
2022-09-14T18:28:44.421Z,21.31
2022-09-14T18:31:13.846Z,21.13
2022-09-14T18:33:46.052Z,21.13
2022-09-14T18:36:15.095Z,21.17
2022-09-14T18:38:42.415Z,21.10
2022-09-14T18:41:10.689Z,20.94
2022-09-14T18:43:38.065Z,20.93
2022-09-14T18:46:08.000Z,20.86
2022-09-14T18:48:35.244Z,20.82
2022-09-14T18:51:04.537Z,20.82
2022-09-14T18:53:31.772Z,20.85
2022-09-14T18:56:02.913Z,20.70
2022-09-14T18:58:33.164Z,20.72
2022-09-14T19:00:59.738Z,20.72
2022-09-14T19:03:26.179Z,20.64
2022-09-14T19:05:52.670Z,20.51
2022-09-14T19:08:19.087Z,20.55
2022-09-14T19:10:45.729Z,20.51
2022-09-14T19:13:12.170Z,20.50
2022-09-14T19:15:40.950Z,20.47
2022-09-14T19:18:09.041Z,20.51
2022-09-14T19:21:02.481Z,20.53
2022-09-14T19:23:26.133Z,20.34
2022-09-14T19:25:52.637Z,20.20
2022-09-14T19:28:19.321Z,20.21
2022-09-14T19:30:46.437Z,20.21
2022-09-14T19:33:13.049Z,20.25
2022-09-14T19:35:39.600Z,20.20
2022-09-14T19:38:06.021Z,20.03
2022-09-14T19:40:32.574Z,20.03
2022-09-14T19:42:59.085Z,20.16
2022-09-14T19:45:25.561Z,20.12
2022-09-14T19:47:51.979Z,20.20
2022-09-14T19:50:18.385Z,20.16
2022-09-14T19:52:44.889Z,20.16
2022-09-14T19:55:11.319Z,20.30
2022-09-14T19:57:38.155Z,20.32
2022-09-14T20:00:07.455Z,20.25
2022-09-14T20:02:34.033Z,20.17
2022-09-14T20:05:00.610Z,20.27
2022-09-14T20:07:27.012Z,20.24
2022-09-14T20:09:53.461Z,20.30
2022-09-14T20:12:19.960Z,20.19
2022-09-14T20:14:46.357Z,20.19
2022-09-14T20:17:12.777Z,20.20
2022-09-14T20:19:39.723Z,20.22
2022-09-14T20:22:06.308Z,20.10
2022-09-14T20:24:32.845Z,20.01
2022-09-14T20:27:00.752Z,20.11
2022-09-14T20:29:30.481Z,19.95
2022-09-14T20:31:58.294Z,19.82
2022-09-14T20:34:25.051Z,19.75
2022-09-14T20:36:52.636Z,19.85
2022-09-14T20:39:20.814Z,19.76
2022-09-14T20:41:47.294Z,19.77
2022-09-14T20:44:14.426Z,19.83
2022-09-14T20:46:43.126Z,19.83
2022-09-14T20:49:12.171Z,19.68
2022-09-14T20:51:39.346Z,19.71
2022-09-14T20:54:06.945Z,19.63
2022-09-14T20:56:34.990Z,19.64
2022-09-14T20:59:06.229Z,19.66
2022-09-14T21:01:36.051Z,19.64
2022-09-14T21:04:05.331Z,19.66
2022-09-14T21:06:31.970Z,19.60
2022-09-14T21:08:59.898Z,19.55
2022-09-14T21:11:27.304Z,19.38
2022-09-14T21:13:55.484Z,19.46
2022-09-14T21:16:26.189Z,19.49
2022-09-14T21:18:56.502Z,19.42
2022-09-14T21:21:23.399Z,19.25
2022-09-14T21:23:50.692Z,19.16
2022-09-14T21:26:18.758Z,19.24
2022-09-14T21:28:45.245Z,19.45
2022-09-14T21:31:21.541Z,19.32
2022-09-14T21:33:51.295Z,19.36
2022-09-14T21:36:19.429Z,19.48
2022-09-14T21:38:50.756Z,19.48
2022-09-14T21:41:18.859Z,19.41
2022-09-14T21:43:45.596Z,19.44
2022-09-14T21:46:12.132Z,19.36
2022-09-14T21:48:38.902Z,19.39
2022-09-14T21:51:06.953Z,19.28
2022-09-14T21:53:34.451Z,19.33
2022-09-14T21:56:05.591Z,19.34
2022-09-14T21:58:32.807Z,19.35
2022-09-14T22:01:02.109Z,19.23
2022-09-14T22:03:29.367Z,19.13
2022-09-14T22:06:07.307Z,19.24
2022-09-14T22:08:35.193Z,19.32
2022-09-14T22:11:06.526Z,19.20
2022-09-14T22:13:33.767Z,19.28
2022-09-14T22:16:08.033Z,19.30
2022-09-14T22:18:36.794Z,19.18
2022-09-14T22:21:04.739Z,19.06
2022-09-14T22:23:32.794Z,19.02
2022-09-14T22:25:59.710Z,19.06
2022-09-14T22:28:26.156Z,19.05
2022-09-14T22:30:55.094Z,19.04
2022-09-14T22:33:23.193Z,18.91
2022-09-14T22:35:57.735Z,18.88
2022-09-14T22:38:26.098Z,19.03
2022-09-14T22:40:59.726Z,19.14
2022-09-14T22:43:27.210Z,19.07
2022-09-14T22:45:54.552Z,19.20
2022-09-14T22:48:22.162Z,19.32
2022-09-14T22:50:50.329Z,19.25
2022-09-14T22:53:17.621Z,19.31
2022-09-14T22:55:44.849Z,19.30
2022-09-14T22:58:14.092Z,19.02
2022-09-14T23:00:41.681Z,19.08
2022-09-14T23:03:09.458Z,19.23
2022-09-14T23:05:37.593Z,19.16
2022-09-14T23:08:05.873Z,18.98
2022-09-14T23:10:32.349Z,19.08
2022-09-14T23:12:59.152Z,19.21
2022-09-14T23:15:25.581Z,19.05
2022-09-14T23:17:52.305Z,19.09
2022-09-14T23:20:18.874Z,18.96
2022-09-14T23:22:45.293Z,18.96
2022-09-14T23:25:11.727Z,19.10
2022-09-14T23:27:38.344Z,19.28
2022-09-14T23:30:05.161Z,19.10
2022-09-14T23:32:32.218Z,19.13
2022-09-14T23:34:58.663Z,19.16
2022-09-14T23:37:25.178Z,19.14
2022-09-14T23:39:51.713Z,19.30
2022-09-14T23:42:18.171Z,19.18
2022-09-14T23:44:44.684Z,19.13
2022-09-14T23:47:11.085Z,19.27
2022-09-14T23:49:37.485Z,19.22
2022-09-14T23:52:04.026Z,19.22
2022-09-14T23:54:31.966Z,19.11
2022-09-14T23:56:58.419Z,18.96
2022-09-14T23:59:24.835Z,19.18
